CYBB/YBB METAR and TAF weather

Enter ICAO airport designator
Station Type Date Time Source
CYBB METAR 2022/06/28 15:00 UTC NOAA

CYBB 281500Z 15015KT 15SM OVC030 07/03 A2967 RMK NS8 SLP051


Station Type Date Time Source
CYBB Decoded METAR 2022/06/28 15:00 UTC NOAA

Pelly Bay Airport, Canada (CYBB) 68-32N 089-49W
Jun 28, 2022 - 11:00 AM EDT / 2022.06.28 1500 UTC
Wind: from the SSE (150 degrees) at 17 MPH (15 KT):0
Visibility: 15 mile(s):0
Sky conditions: overcast
Temperature: 44 F (7 C)
Dew Point: 37 F (3 C)
Relative Humidity: 75%
Pressure (altimeter): 29.67 in. Hg (1004 hPa)
ob: CYBB 281500Z 15015KT 15SM OVC030 07/03 A2967 RMK NS8 SLP051
cycle: 15

Station Type Date Time Source
CYBB TAF 2022/06/28 14:00 UTC NOAA

TAF CYBB 281340Z 2814/2824 13015KT P6SM SCT015 BKN060
TEMPO 2814/2824 P6SM -RA BKN015 BKN050
RMK NXT FCST BY 281900Z

Example: see airport list